Time;durP1;ratioP1;P1;durP2;ratioP2;P2;SDS_P1;SDS_P2;PMS_P1;PMS_P2;Temp;Humidity;BMP_temperature;BMP_pressure;BME280_temperature;BME280_humidity;BME280_pressure;Samples;Min_cycle;Max_cycle;Signal;HPM_P1;HPM_P2
2022/09/24 00:01:08;;;;;;;8.95;5.53;;;12.30;99.90;;;11.30;100.00;97098.31;5054444;28;20466;-74
2022/09/24 00:03:35;;;;;;;7.68;5.25;;;12.20;99.90;;;11.28;100.00;97089.84;5052845;28;20436;-73
2022/09/24 00:06:03;;;;;;;9.75;5.40;;;12.20;99.90;;;11.29;100.00;97087.97;5066036;28;20730;-74
2022/09/24 00:08:29;;;;;;;10.47;5.40;;;12.20;99.90;;;11.28;100.00;97078.47;5053438;28;20460;-74
2022/09/24 00:10:57;;;;;;;9.68;5.18;;;12.20;99.90;;;11.28;100.00;97075.81;5066747;28;20814;-74
2022/09/24 00:13:23;;;;;;;7.30;5.40;;;12.20;99.90;;;11.27;100.00;97076.88;5059209;28;20923;-73
2022/09/24 00:15:50;;;;;;;7.20;5.13;;;12.20;99.90;;;11.29;100.00;97083.47;5064839;28;20494;-72
2022/09/24 00:18:17;;;;;;;6.03;4.95;;;12.20;99.90;;;11.31;100.00;97081.38;5058591;28;20401;-73
2022/09/24 00:20:44;;;;;;;6.53;4.85;;;12.20;99.90;;;11.32;100.00;97076.88;5066685;28;20447;-75
2022/09/24 00:23:11;;;;;;;9.55;5.20;;;12.30;99.90;;;11.33;100.00;97071.31;5052962;28;20401;-74
2022/09/24 00:28:25;;;;;;;7.07;5.20;;;12.30;99.90;;;11.34;100.00;97074.75;5053279;28;20393;-74
2022/09/24 00:30:51;;;;;;;6.20;4.90;;;12.30;99.90;;;11.33;100.00;97068.66;5054888;28;21675;-75
2022/09/24 00:33:17;;;;;;;9.30;5.38;;;12.30;99.90;;;11.32;100.00;97071.56;5065123;28;20890;-74
2022/09/24 00:35:44;;;;;;;8.02;5.53;;;12.20;99.90;;;11.29;100.00;97075.53;5058136;28;20445;-75
2022/09/24 00:38:11;;;;;;;6.82;5.50;;;12.20;99.90;;;11.27;100.00;97072.38;5059400;28;20438;-75
2022/09/24 00:40:38;;;;;;;5.75;4.90;;;12.20;99.90;;;11.24;100.00;97067.59;5055686;28;20398;-74
2022/09/24 00:43:26;;;;;;;8.45;5.03;;;12.20;99.90;;;11.22;100.00;97077.63;5052896;28;20950;-75
2022/09/24 00:45:56;;;;;;;8.10;5.10;;;12.20;99.90;;;11.22;100.00;97069.69;5058386;28;20388;-74
2022/09/24 00:48:22;;;;;;;7.10;5.15;;;12.20;99.90;;;11.21;100.00;97070.75;5057844;28;20485;-74
2022/09/24 00:50:50;;;;;;;6.95;5.10;;;12.20;99.90;;;11.18;100.00;97058.84;5053905;28;20405;-74
2022/09/24 00:53:19;;;;;;;8.60;5.27;;;12.10;99.90;;;11.17;100.00;97049.28;5069882;28;20392;-74
2022/09/24 00:55:53;;;;;;;10.25;5.38;;;12.10;99.90;;;11.15;100.00;97045.31;5058197;28;20396;-74
2022/09/24 00:58:21;;;;;;;9.17;5.53;;;12.10;99.90;;;11.12;100.00;97043.19;5071424;28;20931;-75
2022/09/24 01:00:49;;;;;;;7.22;5.18;;;12.10;99.90;;;11.08;100.00;97042.13;5039061;28;20405;-74
2022/09/24 01:03:19;;;;;;;10.63;5.25;;;12.00;99.90;;;11.04;100.00;97039.22;5056374;28;20392;-74
2022/09/24 01:05:45;;;;;;;7.93;5.40;;;12.00;99.90;;;11.01;100.00;97038.94;5068829;28;20503;-75
2022/09/24 01:08:15;;;;;;;8.73;5.90;;;12.00;99.90;;;10.99;100.00;97039.19;5067362;28;20407;-74
2022/09/24 01:11:01;;;;;;;12.38;5.50;;;11.90;99.90;;;10.96;100.00;97042.38;5057259;28;20755;-74
2022/09/24 01:13:54;;;;;;;8.98;5.68;;;11.90;99.90;;;10.97;100.00;97035.22;5051779;28;20401;-74
2022/09/24 01:16:34;;;;;;;13.23;6.00;;;11.90;99.90;;;10.96;100.00;97037.06;5052098;28;20429;-74
2022/09/24 01:19:17;;;;;;;8.40;5.90;;;11.90;99.90;;;10.94;100.00;97031.25;5052235;28;20393;-75
2022/09/24 01:21:49;;;;;;;9.40;5.40;;;11.90;99.90;;;10.91;100.00;97029.09;5060043;28;20435;-74
2022/09/24 01:24:36;;;;;;;10.40;6.40;;;11.90;99.90;;;10.90;100.00;97022.22;5057577;28;20402;-74
2022/09/24 01:27:10;;;;;;;11.27;6.80;;;11.90;99.90;;;10.91;100.00;97020.34;5053708;28;20458;-74
2022/09/24 01:29:54;;;;;;;7.83;6.03;;;11.90;99.90;;;10.89;100.00;97019.84;5052061;28;20397;-75
2022/09/24 01:32:27;;;;;;;10.35;6.07;;;11.90;99.90;;;10.86;100.00;97011.34;5063226;28;20392;-74
2022/09/24 01:34:59;;;;;;;9.87;6.50;;;11.90;99.90;;;10.83;100.00;97005.78;5058056;28;20885;-74
2022/09/24 01:37:30;;;;;;;10.60;6.63;;;11.80;99.90;;;10.80;100.00;97004.47;5068779;28;20415;-74
2022/09/24 01:39:58;;;;;;;8.90;6.93;;;11.80;99.90;;;10.79;100.00;97008.16;5069949;28;20396;-74
2022/09/24 01:42:28;;;;;;;9.63;7.03;;;11.80;99.90;;;10.75;100.00;97001.78;5051796;28;20909;-75
2022/09/24 01:44:57;;;;;;;15.63;8.02;;;11.70;99.90;;;10.70;100.00;96996.50;5051688;28;20539;-75
2022/09/24 01:47:30;;;;;;;11.10;6.80;;;11.70;99.90;;;10.66;100.00;96990.13;5051694;28;20397;-75
2022/09/24 01:49:56;;;;;;;11.73;7.55;;;11.70;99.90;;;10.64;100.00;97000.19;5051664;28;20827;-74
2022/09/24 01:52:29;;;;;;;12.75;7.50;;;11.60;99.90;;;10.62;100.00;96994.34;5068418;28;20398;-74
2022/09/24 01:54:57;;;;;;;10.23;7.30;;;11.60;99.90;;;10.59;100.00;96996.72;5068104;28;20411;-74
2022/09/24 01:57:28;;;;;;;13.13;7.88;;;11.60;99.90;;;10.58;100.00;96985.34;5068421;28;21029;-74
2022/09/24 02:00:01;;;;;;;12.18;7.72;;;11.60;99.90;;;10.58;100.00;96990.66;5070324;28;20422;-74
2022/09/24 02:02:36;;;;;;;12.33;7.90;;;11.50;99.90;;;10.56;100.00;96984.81;5051509;28;20402;-74
2022/09/24 02:05:11;;;;;;;10.95;6.95;;;11.50;99.90;;;10.53;100.00;96987.16;5067105;28;20533;-74
2022/09/24 02:07:41;;;;;;;12.10;7.72;;;11.50;99.90;;;10.50;100.00;96985.84;5055947;28;20391;-75
2022/09/24 02:10:14;;;;;;;13.32;7.20;;;11.50;99.90;;;10.50;100.00;96980.56;5069463;28;20415;-75
2022/09/24 02:12:43;;;;;;;12.98;8.82;;;11.50;99.90;;;10.46;100.00;96969.69;5068086;28;20460;-74
2022/09/24 02:15:13;;;;;;;10.88;7.60;;;11.50;99.90;;;10.51;100.00;96968.94;5063209;28;20848;-74
2022/09/24 02:17:45;;;;;;;12.23;8.63;;;11.50;99.90;;;10.52;100.00;96973.16;5055637;28;20506;-75
2022/09/24 02:20:15;;;;;;;12.95;8.82;;;11.50;99.90;;;10.53;100.00;96971.28;5069098;28;20406;-74
2022/09/24 02:22:42;;;;;;;10.48;7.75;;;11.50;99.90;;;10.55;100.00;96982.41;5049345;28;20830;-74
2022/09/24 02:25:13;;;;;;;11.13;8.30;;;11.50;99.90;;;10.56;100.00;96976.88;5065365;28;20396;-74
2022/09/24 02:27:39;;;;;;;10.70;7.97;;;11.50;99.90;;;10.57;100.00;96977.66;5070085;28;20420;-75
2022/09/24 02:30:07;;;;;;;11.38;7.35;;;11.50;99.90;;;10.56;100.00;96976.88;5061962;28;20413;-74
2022/09/24 02:32:38;;;;;;;10.07;7.07;;;11.50;99.90;;;10.56;100.00;96979.50;5052094;28;20906;-75
2022/09/24 02:35:09;;;;;;;13.73;7.45;;;11.50;99.90;;;10.56;100.00;96974.22;5050399;28;20527;-74
2022/09/24 02:37:38;;;;;;;10.18;7.70;;;11.50;99.90;;;10.57;100.00;96972.38;5051078;28;20441;-75
2022/09/24 02:40:07;;;;;;;10.98;7.32;;;11.50;99.90;;;10.57;100.00;96967.88;5050503;28;20397;-74
2022/09/24 02:42:33;;;;;;;12.00;7.35;;;11.60;99.90;;;10.58;100.00;96960.72;5050737;28;20405;-74
2022/09/24 02:44:59;;;;;;;13.02;7.43;;;11.60;99.90;;;10.56;100.00;96962.84;5060932;28;20404;-74
2022/09/24 02:47:25;;;;;;;10.98;7.18;;;11.50;99.90;;;10.56;100.00;96962.84;5050700;28;20393;-75
2022/09/24 02:49:53;;;;;;;8.43;7.22;;;11.50;99.90;;;10.56;100.00;96963.63;5050843;28;20409;-74
2022/09/24 02:52:19;;;;;;;9.07;7.10;;;11.50;99.90;;;10.56;100.00;96971.56;5060413;28;20399;-74
2022/09/24 02:54:45;;;;;;;10.93;7.88;;;11.50;99.90;;;10.57;100.00;96970.53;5055001;28;20401;-75
2022/09/24 02:57:11;;;;;;;9.93;7.23;;;11.50;99.90;;;10.60;100.00;96977.16;5050458;28;20409;-74
2022/09/24 02:59:37;;;;;;;11.77;7.30;;;11.50;99.90;;;10.60;100.00;96974.50;5054389;28;20407;-74
2022/09/24 03:02:02;;;;;;;10.88;6.97;;;11.60;99.90;;;10.62;100.00;96967.09;5066079;28;20415;-74
2022/09/24 03:04:29;;;;;;;11.10;7.22;;;11.60;99.90;;;10.64;100.00;96971.06;5059618;28;20453;-75
2022/09/24 03:06:57;;;;;;;12.07;7.85;;;11.60;99.90;;;10.66;100.00;96970.81;5060508;28;20400;-75
2022/09/24 03:09:23;;;;;;;14.88;7.80;;;11.60;99.90;;;10.65;100.00;96962.06;5068293;28;20439;-74
2022/09/24 03:11:49;;;;;;;12.57;7.72;;;11.60;99.90;;;10.64;100.00;96962.34;5056626;28;20487;-74
2022/09/24 03:16:44;;;;;;;9.95;7.00;;;11.60;99.90;;;10.63;100.00;96953.59;5066644;28;20427;-77
2022/09/24 03:19:10;;;;;;;8.73;6.77;;;11.60;99.90;;;10.63;100.00;96955.44;5068456;28;20426;-76
2022/09/24 03:21:36;;;;;;;10.27;6.93;;;11.60;99.90;;;10.63;100.00;96945.66;5069697;28;20483;-76
2022/09/24 03:24:03;;;;;;;10.20;7.45;;;11.60;99.90;;;10.63;100.00;96953.59;5068639;28;20900;-76
2022/09/24 03:26:29;;;;;;;13.75;6.90;;;11.60;99.90;;;10.62;100.00;96951.19;5070017;28;20467;-76
2022/09/24 03:28:55;;;;;;;11.48;7.00;;;11.60;99.90;;;10.60;100.00;96945.41;5070149;28;20411;-76
2022/09/24 03:31:23;;;;;;;13.52;7.18;;;11.50;99.90;;;10.60;100.00;96945.41;5073534;28;20407;-76
2022/09/24 03:33:49;;;;;;;10.75;6.75;;;11.50;99.90;;;10.59;100.00;96943.81;5073713;28;20414;-76
2022/09/24 03:36:24;;;;;;;12.07;6.70;;;11.60;99.90;;;10.62;100.00;96944.06;5074106;28;20466;-76
2022/09/24 03:38:54;;;;;;;9.20;6.30;;;11.60;99.90;;;10.65;100.00;96946.19;5074149;28;20399;-76
2022/09/24 03:41:22;;;;;;;9.88;6.65;;;11.60;99.90;;;10.68;100.00;96936.91;5074033;28;20411;-76
2022/09/24 03:43:48;;;;;;;10.85;6.93;;;11.60;99.90;;;10.71;100.00;96931.09;5073507;28;20407;-76
2022/09/24 03:46:16;;;;;;;9.30;6.75;;;11.60;99.90;;;10.73;100.00;96935.09;5073888;28;20392;-76
2022/09/24 03:48:42;;;;;;;12.10;7.57;;;11.70;99.90;;;10.76;100.00;96931.91;5073886;28;20490;-76
2022/09/24 03:51:11;;;;;;;9.30;6.70;;;11.70;99.90;;;10.78;100.00;96926.34;5076474;28;20403;-75
2022/09/24 03:53:37;;;;;;;9.25;6.47;;;11.70;99.90;;;10.79;100.00;96926.09;5077799;28;20392;-76
2022/09/24 03:56:05;;;;;;;10.50;6.50;;;11.70;99.90;;;10.77;100.00;96932.69;5074523;28;20461;-76
2022/09/24 03:58:36;;;;;;;10.27;6.63;;;11.70;99.90;;;10.77;100.00;96928.19;5072514;28;20411;-76
2022/09/24 04:01:03;;;;;;;8.33;6.37;;;11.70;99.90;;;10.79;100.00;96933.25;5073684;28;20765;-76
2022/09/24 04:03:28;;;;;;;7.57;6.53;;;11.70;99.90;;;10.82;100.00;96932.72;5072680;28;20515;-76
2022/09/24 04:05:55;;;;;;;9.63;6.57;;;11.80;99.90;;;10.83;100.00;96932.44;5072622;28;20554;-76
2022/09/24 04:08:22;;;;;;;8.52;6.55;;;11.80;99.90;;;10.85;100.00;96927.69;5073456;28;20418;-76
2022/09/24 04:10:49;;;;;;;10.27;6.70;;;11.80;99.90;;;10.89;100.00;96935.09;5073554;28;20455;-76
2022/09/24 04:13:16;;;;;;;10.95;6.93;;;11.80;99.90;;;10.88;100.00;96930.88;5072987;28;20403;-76
2022/09/24 04:15:43;;;;;;;10.15;6.47;;;11.80;99.90;;;10.91;100.00;96932.97;5073145;28;20453;-76
2022/09/24 04:18:10;;;;;;;9.40;6.90;;;11.80;99.90;;;10.91;100.00;96930.31;5073264;28;20446;-76
2022/09/24 04:20:36;;;;;;;13.82;6.97;;;11.80;99.90;;;10.91;100.00;96925.03;5073223;28;21011;-76
2022/09/24 04:23:03;;;;;;;10.65;7.00;;;11.90;99.90;;;10.91;100.00;96932.97;5072620;28;20455;-76
2022/09/24 04:25:31;;;;;;;10.45;7.07;;;11.80;99.90;;;10.93;100.00;96930.88;5073130;28;20487;-77
2022/09/24 04:27:59;;;;;;;9.27;6.63;;;11.90;99.90;;;10.93;100.00;96930.88;5073123;28;20410;-76
2022/09/24 04:30:27;;;;;;;8.48;7.20;;;11.90;99.90;;;10.94;100.00;96930.59;5064826;28;20523;-76
2022/09/24 04:32:55;;;;;;;10.18;7.28;;;11.80;99.90;;;10.94;100.00;96927.97;5065144;28;20415;-76
2022/09/24 04:35:23;;;;;;;9.27;7.00;;;11.80;99.90;;;10.94;100.00;96920.00;5068560;28;20882;-76
2022/09/24 04:37:49;;;;;;;8.95;6.78;;;11.90;99.90;;;10.95;100.00;96920.81;5070883;28;20908;-76
2022/09/24 04:40:16;;;;;;;11.43;7.32;;;11.80;99.90;;;10.96;100.00;96909.97;5071952;28;20400;-77
2022/09/24 04:42:46;;;;;;;11.10;7.07;;;11.90;99.90;;;10.95;100.00;96908.38;5058340;28;20413;-76
2022/09/24 04:45:14;;;;;;;9.20;7.13;;;11.90;99.90;;;10.94;100.00;96906.78;5052706;28;20398;-76
2022/09/24 04:47:40;;;;;;;10.32;7.22;;;11.90;99.90;;;10.92;100.00;96908.88;5052839;28;20394;-76
2022/09/24 04:50:10;;;;;;;9.02;6.97;;;11.90;99.90;;;10.89;100.00;96912.06;5052172;28;20417;-76
2022/09/24 04:52:36;;;;;;;10.27;7.18;;;11.80;99.90;;;10.87;100.00;96908.91;5065345;28;20410;-76
2022/09/24 04:55:03;;;;;;;10.52;7.22;;;11.80;99.90;;;10.88;100.00;96901.75;5069247;28;20423;-80
2022/09/24 04:57:35;;;;;;;12.45;7.90;;;11.80;99.90;;;10.85;100.00;96903.84;5053041;28;20518;-79
2022/09/24 05:00:03;;;;;;;10.23;6.85;;;11.80;99.90;;;10.85;100.00;96908.34;5052577;28;20416;-79
2022/09/24 05:02:30;;;;;;;10.73;7.53;;;11.80;99.90;;;10.82;100.00;96898.31;5060735;28;20450;-81
2022/09/24 05:04:55;;;;;;;8.65;7.07;;;11.80;99.90;;;10.83;100.00;96900.66;5063946;28;20403;-81
2022/09/24 05:07:23;;;;;;;10.38;7.18;;;11.80;99.90;;;10.80;100.00;96903.06;5057048;28;20416;-76
2022/09/24 05:09:49;;;;;;;14.07;7.57;;;11.80;99.90;;;10.78;100.00;96905.16;5056330;28;20430;-77
2022/09/24 05:12:15;;;;;;;9.88;7.60;;;11.70;99.90;;;10.77;100.00;96903.56;5044917;28;20831;-77
2022/09/24 05:14:41;;;;;;;9.93;7.60;;;11.70;99.90;;;10.76;100.00;96916.03;5052159;28;20409;-77
2022/09/24 05:17:07;;;;;;;11.07;8.20;;;11.70;99.90;;;10.75;100.00;96913.66;5061926;28;20415;-77
2022/09/24 05:19:32;;;;;;;9.93;7.82;;;11.70;99.90;;;10.75;100.00;96918.94;5062799;28;20401;-77
2022/09/24 05:21:58;;;;;;;11.02;7.50;;;11.70;99.90;;;10.75;100.00;96921.59;5070633;28;20416;-77
2022/09/24 05:24:25;;;;;;;11.98;8.15;;;11.70;99.90;;;10.75;100.00;96913.66;5061820;28;20417;-76
2022/09/24 05:27:10;;;;;;;12.48;7.97;;;11.70;99.90;;;10.76;100.00;96917.88;5068908;28;20396;-77
2022/09/24 05:29:37;;;;;;;11.88;7.63;;;11.70;99.90;;;10.77;100.00;96914.97;5069894;28;20395;-77
2022/09/24 05:32:08;;;;;;;19.42;7.85;;;11.70;99.90;;;10.79;100.00;96922.66;5054533;28;20437;-76
2022/09/24 05:34:34;;;;;;;10.93;7.18;;;11.70;99.90;;;10.79;100.00;96925.28;5064480;28;20481;-77
2022/09/24 05:37:01;;;;;;;9.77;7.75;;;11.70;99.90;;;10.78;100.00;96929.00;5059512;28;20912;-77
2022/09/24 05:39:29;;;;;;;11.15;7.50;;;11.70;99.90;;;10.78;100.00;96929.00;5059711;28;20914;-77
2022/09/24 05:41:55;;;;;;;9.02;6.80;;;11.70;99.90;;;10.78;100.00;96934.28;5052082;28;20413;-77
2022/09/24 05:44:21;;;;;;;9.93;7.20;;;11.70;99.90;;;10.77;100.00;96935.34;5051512;28;20401;-77
2022/09/24 05:46:47;;;;;;;8.57;7.07;;;11.70;99.90;;;10.77;100.00;96938.00;5062716;28;20415;-77
2022/09/24 05:49:13;;;;;;;10.70;7.77;;;11.70;99.90;;;10.78;100.00;96935.09;5069265;28;20760;-77
2022/09/24 05:51:39;;;;;;;10.50;7.28;;;11.70;99.90;;;10.78;100.00;96939.59;5060629;28;20488;-77
2022/09/24 05:54:05;;;;;;;11.15;7.28;;;11.70;99.90;;;10.81;100.00;96945.16;5050461;28;20406;-76
2022/09/24 05:56:32;;;;;;;12.43;7.53;;;11.80;99.90;;;10.83;100.00;96947.53;5053322;28;20510;-77
2022/09/24 05:58:59;;;;;;;11.15;8.02;;;11.80;99.90;;;10.86;100.00;96944.38;5056141;28;20450;-77
2022/09/24 06:01:28;;;;;;;10.02;7.63;;;11.80;99.90;;;10.89;100.00;96951.00;5063073;28;20457;-77
2022/09/24 06:03:55;;;;;;;11.33;7.37;;;11.80;99.90;;;10.91;100.00;96947.00;5051127;28;20504;-77
2022/09/24 06:06:21;;;;;;;10.50;7.55;;;11.80;99.90;;;10.93;100.00;96938.81;5059029;28;20409;-77
2022/09/24 06:08:47;;;;;;;10.77;7.97;;;11.90;99.90;;;10.96;100.00;96947.03;5065805;28;20406;-76
2022/09/24 06:11:13;;;;;;;9.93;7.70;;;11.90;99.90;;;11.01;100.00;96948.88;5062755;28;20414;-76
2022/09/24 06:13:40;;;;;;;11.65;7.90;;;11.90;99.90;;;11.04;100.00;96943.06;5054359;28;20784;-76
2022/09/24 06:16:08;;;;;;;11.38;8.07;;;11.90;99.90;;;11.10;100.00;96949.94;5056746;28;20424;-75
2022/09/24 06:18:35;;;;;;;15.25;8.80;;;12.00;99.90;;;11.13;100.00;96944.91;5059162;28;20431;-75
2022/09/24 06:21:02;;;;;;;11.05;8.52;;;12.00;99.90;;;11.17;100.00;96943.34;5050726;28;20437;-75
2022/09/24 06:23:29;;;;;;;10.65;8.00;;;12.10;99.90;;;11.22;100.00;96948.63;5057223;28;20878;-75
2022/09/24 06:25:55;;;;;;;12.87;8.70;;;12.10;99.90;;;11.27;100.00;96949.69;5056189;28;20402;-75
2022/09/24 06:28:21;;;;;;;14.48;9.57;;;12.20;99.90;;;11.29;100.00;96948.34;5056235;28;20423;-74
2022/09/24 06:30:49;;;;;;;13.00;8.23;;;12.20;99.90;;;11.34;100.00;96958.16;5061236;28;20460;-77
2022/09/24 06:33:15;;;;;;;13.18;8.18;;;12.20;99.90;;;11.39;100.00;96966.09;5053049;28;20409;-77
2022/09/24 06:35:43;;;;;;;13.63;8.38;;;12.30;99.90;;;11.44;100.00;96964.25;5067634;28;20414;-74
2022/09/24 06:38:11;;;;;;;9.82;7.70;;;12.30;99.90;;;11.48;100.00;96972.47;5061727;28;20432;-74
2022/09/24 06:40:38;;;;;;;11.80;7.47;;;12.40;99.90;;;11.51;100.00;96967.41;5065617;28;20416;-73
2022/09/24 06:43:05;;;;;;;12.35;7.70;;;12.40;99.90;;;11.54;100.00;96968.75;5056552;28;20412;-73
2022/09/24 06:45:31;;;;;;;12.27;7.22;;;12.40;99.90;;;11.56;100.00;96966.63;5057650;28;20398;-73
2022/09/24 06:48:02;;;;;;;11.13;7.55;;;12.40;99.90;;;11.59;100.00;96972.19;5051170;28;20403;-73
2022/09/24 06:50:30;;;;;;;11.52;7.78;;;12.50;99.90;;;11.64;100.00;96979.34;5060307;28;20430;-73
2022/09/24 06:52:57;;;;;;;10.77;7.60;;;12.50;99.90;;;11.68;100.00;96976.94;5068402;28;20431;-74
2022/09/24 06:55:23;;;;;;;9.50;7.50;;;12.50;99.90;;;11.71;100.00;96979.06;5066413;28;20403;-74
2022/09/24 06:57:49;;;;;;;11.00;7.85;;;12.60;99.90;;;11.76;100.00;96968.47;5057523;28;20439;-75
2022/09/24 07:00:16;;;;;;;12.80;7.93;;;12.60;99.90;;;11.79;100.00;96976.69;5057882;28;20750;-75
2022/09/24 07:02:42;;;;;;;12.73;8.20;;;12.60;99.90;;;11.85;100.00;96974.81;5055204;28;20466;-76
2022/09/24 07:05:09;;;;;;;11.55;8.18;;;12.70;99.90;;;11.85;100.00;96975.63;5058434;28;20468;-78
2022/09/24 07:07:36;;;;;;;11.30;7.60;;;12.70;99.90;;;11.92;100.00;96975.34;5053171;28;20475;-74
2022/09/24 07:10:05;;;;;;;11.18;7.57;;;12.80;99.90;;;11.96;100.00;96982.47;5050234;28;20434;-76
2022/09/24 07:12:33;;;;;;;9.82;7.43;;;12.80;99.90;;;12.00;100.00;96993.34;5056791;28;20840;-75
2022/09/24 07:15:00;;;;;;;10.03;7.67;;;12.90;99.90;;;12.04;100.00;96986.44;5054011;28;20954;-78
2022/09/24 07:17:27;;;;;;;9.00;6.88;;;12.90;99.90;;;12.09;100.00;96983.00;5052369;28;20450;-76
2022/09/24 07:19:53;;;;;;;9.82;7.50;;;12.90;99.90;;;12.11;100.00;96989.59;5066701;28;20480;-76
2022/09/24 07:22:22;;;;;;;9.18;7.40;;;12.90;99.90;;;12.20;100.00;96987.19;5056218;28;20983;-76
2022/09/24 07:24:48;;;;;;;8.85;6.63;;;13.00;99.90;;;12.26;100.00;96989.53;5059409;28;20397;-77
2022/09/24 07:27:14;;;;;;;8.70;6.77;;;13.10;99.90;;;12.34;100.00;96999.59;5064515;28;20762;-75
2022/09/24 07:29:40;;;;;;;8.35;6.50;;;13.20;99.90;;;12.38;100.00;96997.22;5068832;28;20396;-80
2022/09/24 07:32:06;;;;;;;8.65;6.50;;;13.20;99.90;;;12.40;100.00;97003.06;5054116;28;20413;-76
2022/09/24 07:34:32;;;;;;;12.98;7.00;;;13.20;99.90;;;12.40;100.00;97005.72;5064117;28;20399;-74
2022/09/24 07:36:59;;;;;;;12.48;6.72;;;13.20;99.90;;;12.45;100.00;97002.22;5061231;28;20444;-75
2022/09/24 07:39:27;;;;;;;6.68;5.75;;;13.30;99.90;;;12.51;100.00;97001.94;5058839;28;20430;-76
2022/09/24 07:41:53;;;;;;;11.13;6.50;;;13.30;99.90;;;12.52;100.00;97006.19;5059852;28;20397;-73
2022/09/24 07:44:19;;;;;;;8.30;5.90;;;13.30;99.90;;;12.54;100.00;97006.72;5062171;28;20489;-75
2022/09/24 07:46:46;;;;;;;7.03;6.05;;;13.40;99.90;;;12.58;100.00;97009.59;5056773;28;20501;-85
2022/09/24 07:49:12;;;;;;;7.50;6.07;;;13.40;99.90;;;12.59;100.00;97016.50;5059842;28;20412;-76
2022/09/24 07:51:38;;;;;;;8.90;6.57;;;13.40;99.90;;;12.64;100.00;97019.13;5053860;28;21144;-74
2022/09/24 07:54:04;;;;;;;8.25;6.22;;;13.40;99.90;;;12.68;100.00;97014.88;5053089;28;20436;-76
2022/09/24 07:56:31;;;;;;;8.68;6.30;;;13.50;99.90;;;12.69;100.00;97006.63;5055412;28;20396;-75
2022/09/24 07:58:57;;;;;;;9.85;6.07;;;13.50;99.90;;;12.74;100.00;97008.47;5054312;28;20823;-74
2022/09/24 08:01:24;;;;;;;7.75;6.03;;;13.50;99.90;;;12.77;100.00;97013.25;5060360;28;20419;-75
2022/09/24 08:03:51;;;;;;;9.93;6.00;;;13.60;99.90;;;12.82;100.00;97015.84;5056119;28;20911;-75
2022/09/24 08:06:18;;;;;;;8.82;5.93;;;13.60;99.90;;;12.88;100.00;97020.06;5056180;28;20392;-77
2022/09/24 08:08:44;;;;;;;6.93;5.68;;;13.70;99.90;;;12.94;100.00;97013.66;5056600;28;20493;-76
2022/09/24 08:11:15;;;;;;;14.97;6.00;;;13.70;99.90;;;12.99;100.00;97008.31;5057355;28;20459;-75
2022/09/24 08:13:44;;;;;;;7.80;5.87;;;13.80;99.90;;;13.07;100.00;97020.25;5057989;28;20416;-75
2022/09/24 08:16:10;;;;;;;10.98;6.03;;;13.80;99.90;;;13.13;100.00;97021.81;5056521;28;20689;-75
2022/09/24 08:18:36;;;;;;;8.55;6.18;;;13.90;99.90;;;13.22;100.00;97028.13;5060172;28;20412;-76
2022/09/24 08:21:05;;;;;;;8.10;6.30;;;14.00;99.90;;;13.29;100.00;97027.81;5064549;28;20787;-76
2022/09/24 08:23:31;;;;;;;9.50;6.22;;;14.00;99.90;;;13.35;100.00;97027.50;5063239;28;20431;-77
2022/09/24 08:25:57;;;;;;;9.75;5.97;;;14.10;99.90;;;13.37;100.00;97030.69;5046570;28;20829;-74
2022/09/24 08:28:23;;;;;;;10.38;5.32;;;14.10;99.90;;;13.40;100.00;97030.13;5061633;28;20504;-75
2022/09/24 08:30:50;;;;;;;11.80;5.97;;;14.10;99.90;;;13.55;100.00;97026.56;5058920;28;20512;-75
2022/09/24 08:33:16;;;;;;;9.77;6.13;;;14.30;99.90;;;13.56;100.00;97030.81;5063252;28;20409;-76
2022/09/24 08:35:42;;;;;;;9.07;5.35;;;14.30;99.90;;;13.62;100.00;97037.66;5059270;28;20403;-75
2022/09/24 08:38:08;;;;;;;7.93;5.60;;;14.40;99.90;;;13.65;100.00;97028.34;5063536;28;20425;-74
2022/09/24 08:40:38;;;;;;;8.32;4.80;;;14.40;99.90;;;13.75;100.00;97033.59;5068658;28;20461;-74
2022/09/24 08:43:23;;;;;;;9.60;5.40;;;14.50;99.90;;;13.76;100.00;97032.47;5065113;28;20403;-75
2022/09/24 08:48:47;;;;;;;8.65;4.68;;;14.60;99.90;;;13.92;100.00;97029.41;5052917;28;20775;-75
2022/09/24 08:51:17;;;;;;;5.40;4.13;;;14.60;99.90;;;14.03;100.00;97031.97;5052808;28;20483;-75
2022/09/24 08:53:49;;;;;;;6.25;4.35;;;14.80;99.90;;;14.03;98.96;97032.78;5052371;28;20444;-75
2022/09/24 08:56:23;;;;;;;6.95;4.10;;;14.80;99.90;;;13.99;97.22;97029.06;5055734;28;20480;-74
2022/09/24 08:58:56;;;;;;;4.65;3.92;;;14.70;99.90;;;14.07;98.22;97031.13;5053711;28;20397;-74
2022/09/24 09:01:37;;;;;;;6.68;4.05;;;14.70;99.90;;;13.98;96.32;97034.69;5066564;28;20451;-75
2022/09/24 09:04:24;;;;;;;5.68;3.60;;;14.70;99.90;;;13.91;95.66;97037.66;5052844;28;20393;-74
2022/09/24 09:07:07;;;;;;;7.30;4.00;;;14.70;99.90;;;14.05;95.21;97035.16;5063686;28;20403;-75
2022/09/24 09:09:45;;;;;;;5.00;3.30;;;14.70;99.90;;;14.31;93.71;97037.28;5063527;28;20486;-74
2022/09/24 09:12:18;;;;;;;6.45;3.17;;;15.00;99.90;;;14.41;93.14;97035.59;5064628;28;20403;-74
2022/09/24 09:17:41;;;;;;;5.80;3.72;;;15.00;99.90;;;14.19;93.74;97031.56;5012732;28;20932;-76
2022/09/24 09:20:17;;;;;;;5.20;3.15;;;14.90;99.90;;;14.46;92.88;97035.53;5023525;28;20407;-76
2022/09/24 09:22:47;;;;;;;5.03;3.20;;;15.10;99.90;;;14.32;93.37;97036.19;5004652;28;20502;-75
2022/09/24 09:25:19;;;;;;;6.65;3.42;;;15.10;99.90;;;14.17;92.64;97032.91;5003375;28;20942;-75
2022/09/24 09:27:49;;;;;;;4.57;3.13;;;15.00;99.90;;;14.12;93.96;97038.28;4992979;28;21023;-75
2022/09/24 09:30:19;;;;;;;5.18;3.17;;;14.90;99.90;;;13.99;93.10;97041.59;4998445;28;20885;-75
2022/09/24 09:33:07;;;;;;;4.80;3.22;;;14.80;99.90;;;14.04;93.71;97037.03;5004770;28;20394;-75
2022/09/24 09:35:42;;;;;;;6.25;2.95;;;14.80;99.90;;;13.87;91.71;97044.63;4999327;28;20451;-74
2022/09/24 09:38:22;;;;;;;4.95;3.25;;;14.70;99.90;;;14.06;94.87;97036.75;4995583;28;20477;-75
2022/09/24 09:40:58;;;;;;;4.30;2.58;;;14.70;99.90;;;14.14;94.47;97041.44;4983691;28;20412;-76
2022/09/24 09:43:26;;;;;;;5.07;3.08;;;14.90;99.90;;;13.95;93.08;97034.19;4996186;28;20416;-75
2022/09/24 09:46:09;;;;;;;4.78;3.25;;;14.70;99.90;;;13.90;94.97;97033.44;4992316;28;20494;-75
2022/09/24 09:48:48;;;;;;;3.83;2.95;;;14.70;99.90;;;13.82;96.67;97018.88;4985536;28;20481;-76
2022/09/24 09:51:20;;;;;;;6.32;3.47;;;14.60;99.90;;;13.75;96.89;97021.06;4974475;28;20418;-75
2022/09/24 09:53:57;;;;;;;5.93;3.42;;;14.60;99.90;;;13.69;97.59;97024.84;4994105;28;20415;-75
2022/09/24 09:56:27;;;;;;;4.50;3.40;;;14.50;99.90;;;13.71;98.47;97024.56;5011444;28;20449;-76
2022/09/24 09:59:05;;;;;;;4.75;3.28;;;14.50;99.90;;;13.73;99.90;97017.09;5011550;28;20720;-79
2022/09/24 10:01:34;;;;;;;5.05;3.45;;;14.50;99.90;;;13.80;100.00;97013.03;5010754;28;20402;-78
2022/09/24 10:04:03;;;;;;;4.68;3.10;;;14.60;99.90;;;13.84;100.00;97015.91;5010837;28;20408;-76
2022/09/24 10:06:32;;;;;;;3.22;2.92;;;14.60;99.90;;;13.90;100.00;97022.81;4990731;28;20813;-76
2022/09/24 10:09:14;;;;;;;4.32;3.25;;;14.70;99.90;;;13.93;100.00;97025.69;4982541;28;20410;-75
2022/09/24 10:11:41;;;;;;;5.18;3.55;;;14.70;99.90;;;13.92;100.00;97023.28;4972421;28;20408;-75
2022/09/24 10:14:11;;;;;;;3.63;3.23;;;14.70;99.90;;;14.02;100.00;97031.19;4974062;28;20459;-75
2022/09/24 10:16:40;;;;;;;5.38;3.72;;;14.80;99.90;;;14.02;100.00;97025.88;4980641;28;20437;-75
2022/09/24 10:19:18;;;;;;;4.97;3.50;;;14.80;99.90;;;14.06;100.00;97026.13;4962477;28;20478;-75
2022/09/24 10:21:44;;;;;;;4.90;3.60;;;14.80;99.90;;;14.14;100.00;97023.59;4981864;28;20428;-75
2022/09/24 10:24:16;;;;;;;6.10;4.00;;;14.90;99.90;;;14.22;100.00;97017.66;4992878;28;20512;-75
2022/09/24 10:26:45;;;;;;;5.43;3.80;;;15.00;99.90;;;14.24;100.00;97023.50;5002437;28;20392;-76
2022/09/24 10:32:01;;;;;;;5.22;3.78;;;15.00;99.90;;;14.30;100.00;97017.03;5001382;28;20918;-77